Terminal Aerodrome Forecast
Issued by NWS Caribou, ME

Home | Current Version | Previous Version | Text Only | Print | Product List | Glossary On
Versions: 1 2 3 4 5 6 7 8 9 10 11 12 13 14 15 16 17 18
000
FTUS41 KCAR 061722
TAFCAR
TAF
KCAR 061722Z 0618/0718 25010G17KT P6SM FEW120 SCT220
     FM070100 21008KT P6SM SCT060 BKN110
     FM070800 21007KT P6SM BKN050 OVC090
     FM071500 23011KT P6SM OVC040=

USA.gov is the U.S. government's official web portal to all federal, state and local government web resources and services.